Hodges, South Carolina
Current Conditions -  °F | °C
As of 11:06 PM on Sunday 23 Nov 2014 (Local Time) from KGRD Reporting Station
Overcast Overcast  
Wind Chill: 62°   Ceiling: 1700
Heat Index: 62°   Visibility: 10mi
Dew Point: 60°   Wind: 10mph
Humidity: 93%   Direction: 220°SW
Pressure: 29.78"   Gusts: 20mph
Location:  34.29°N, 82.25°W
Report Text: KGRD 240406Z AUTO 22009G17KT 10SM SCT011 BKN017 OVC021 17/16 A2978 RMK AO2 T01670156
Loading
Personal Weather Stations






























Interactive Weather Map New forecast layout! Learn more

10-Day Weather Forecast

Advertisements
Track Severe Weather on mobile